createdAt,value
2018-04-23T00:00:28.662Z,6.50
2018-04-23T00:02:56.280Z,6.43
2018-04-23T00:05:23.822Z,6.23
2018-04-23T00:07:51.332Z,6.67
2018-04-23T00:10:18.953Z,6.87
2018-04-23T00:12:46.466Z,7.30
2018-04-23T00:15:14.070Z,6.77
2018-04-23T00:17:41.571Z,6.87
2018-04-23T00:20:09.097Z,6.57
2018-04-23T00:22:36.752Z,6.63
2018-04-23T00:25:04.308Z,6.60
2018-04-23T00:27:31.847Z,7.00
2018-04-23T00:30:00.140Z,6.83
2018-04-23T00:32:28.412Z,5.87
2018-04-23T00:34:55.961Z,6.17
2018-04-23T00:37:24.240Z,6.27
2018-04-23T00:39:52.519Z,6.93
2018-04-23T00:42:20.942Z,6.47
2018-04-23T00:44:48.462Z,6.80
2018-04-23T00:47:16.756Z,6.80
2018-04-23T00:49:44.317Z,6.70
2018-04-23T00:52:11.828Z,7.03
2018-04-23T00:54:39.433Z,6.87
2018-04-23T00:57:07.727Z,7.30
2018-04-23T00:59:35.277Z,6.40
2018-04-23T01:02:02.835Z,6.63
2018-04-23T01:04:30.399Z,6.43
2018-04-23T01:06:57.966Z,6.30
2018-04-23T01:09:25.512Z,7.43
2018-04-23T01:11:53.083Z,6.83
2018-04-23T01:14:20.645Z,6.53
2018-04-23T01:16:48.174Z,6.40
2018-04-23T01:19:16.457Z,6.30
2018-04-23T01:21:44.749Z,5.80
2018-04-23T01:24:12.278Z,5.30
2018-04-23T01:26:39.813Z,5.73
2018-04-23T01:29:07.325Z,5.60
2018-04-23T01:31:35.599Z,4.87
2018-04-23T01:34:03.135Z,5.70
2018-04-23T01:36:30.731Z,5.60
2018-04-23T01:38:58.241Z,5.03
2018-04-23T01:41:25.764Z,4.60
2018-04-23T01:43:53.283Z,4.63
2018-04-23T01:46:21.563Z,4.17
2018-04-23T01:48:49.869Z,4.17
2018-04-23T01:51:17.383Z,4.73
2018-04-23T01:53:44.894Z,4.20
2018-04-23T01:56:12.441Z,4.80
2018-04-23T01:58:39.957Z,4.10
2018-04-23T02:01:07.579Z,4.47
2018-04-23T02:03:35.115Z,4.07
2018-04-23T02:06:03.412Z,4.27
2018-04-23T02:08:30.937Z,4.63
2018-04-23T02:10:59.251Z,3.93
2018-04-23T02:13:26.757Z,4.07
2018-04-23T02:15:54.370Z,4.40
2018-04-23T02:18:21.892Z,4.37
2018-04-23T02:20:50.192Z,4.77
2018-04-23T02:23:17.703Z,4.47
2018-04-23T02:25:45.228Z,4.50
2018-04-23T02:28:12.853Z,4.73
2018-04-23T02:30:41.146Z,4.90
2018-04-23T02:33:09.445Z,5.33
2018-04-23T02:35:37.005Z,4.57
2018-04-23T02:38:04.506Z,4.10
2018-04-23T02:40:32.034Z,3.90
2018-04-23T02:42:59.569Z,3.80
2018-04-23T02:45:27.080Z,3.57
2018-04-23T02:47:54.612Z,3.53
2018-04-23T02:50:22.126Z,3.27
2018-04-23T02:52:50.442Z,3.47
2018-04-23T02:55:17.994Z,3.30
2018-04-23T02:57:45.504Z,3.47
2018-04-23T03:00:13.048Z,3.43
2018-04-23T03:02:40.597Z,3.43
2018-04-23T03:05:08.104Z,4.37
2018-04-23T03:07:36.404Z,4.27
2018-04-23T03:10:03.965Z,4.47
2018-04-23T03:12:31.468Z,4.20
2018-04-23T03:14:58.996Z,4.70
2018-04-23T03:17:26.661Z,3.90
2018-04-23T03:19:54.206Z,4.30
2018-04-23T03:22:21.710Z,4.13
2018-04-23T03:24:49.328Z,4.20
2018-04-23T03:27:16.849Z,4.63
2018-04-23T03:29:44.366Z,4.30
2018-04-23T03:32:11.878Z,4.60
2018-04-23T03:34:39.469Z,5.03
2018-04-23T03:37:07.039Z,5.13
2018-04-23T03:39:34.567Z,5.00
2018-04-23T03:42:02.979Z,4.53
2018-04-23T03:44:30.580Z,4.93
2018-04-23T03:46:58.086Z,4.90
2018-04-23T03:49:25.586Z,5.47
2018-04-23T03:51:53.208Z,6.07
2018-04-23T03:54:20.729Z,5.20
2018-04-23T03:56:48.237Z,6.37
2018-04-23T03:59:15.752Z,5.90
2018-04-23T04:01:43.344Z,6.27
2018-04-23T04:04:10.910Z,6.27
2018-04-23T04:06:38.428Z,6.37
2018-04-23T04:09:06.047Z,6.90
2018-04-23T04:11:33.586Z,6.73
2018-04-23T04:14:13.088Z,6.27
2018-04-23T04:16:52.487Z,6.53
2018-04-23T04:19:20.022Z,7.07
2018-04-23T04:21:48.298Z,6.67
2018-04-23T04:24:16.571Z,7.00
2018-04-23T04:26:44.855Z,7.17
2018-04-23T04:29:13.261Z,6.90
2018-04-23T04:31:40.796Z,7.37
2018-04-23T04:34:08.351Z,7.50
2018-04-23T04:36:35.873Z,7.50
2018-04-23T04:39:03.396Z,7.33
2018-04-23T04:41:30.930Z,7.03
2018-04-23T04:43:59.252Z,7.90
2018-04-23T04:46:26.774Z,7.60
2018-04-23T04:48:54.321Z,7.60
2018-04-23T04:51:22.663Z,8.10
2018-04-23T04:53:50.141Z,7.97
2018-04-23T04:56:17.689Z,8.40
2018-04-23T04:58:45.301Z,8.13
2018-04-23T05:01:13.111Z,8.07
2018-04-23T05:03:40.735Z,8.53
2018-04-23T05:06:08.243Z,9.40
2018-04-23T05:08:35.857Z,8.23
2018-04-23T05:11:03.424Z,9.70
2018-04-23T05:13:30.945Z,9.30
2018-04-23T05:15:59.247Z,9.13
2018-04-23T05:18:26.776Z,8.97
2018-04-23T05:20:55.069Z,9.33
2018-04-23T05:23:23.343Z,9.47
2018-04-23T05:25:51.756Z,10.17
2018-04-23T05:28:19.271Z,10.27
2018-04-23T05:30:47.557Z,10.50
2018-04-23T05:33:15.853Z,10.57
2018-04-23T05:35:43.375Z,10.33
2018-04-23T05:38:10.913Z,10.83
2018-04-23T05:40:38.441Z,12.17
2018-04-23T05:43:05.997Z,11.00
2018-04-23T05:45:33.525Z,11.57
2018-04-23T05:48:01.819Z,11.43
2018-04-23T05:50:30.102Z,10.40
2018-04-23T05:52:57.616Z,11.07
2018-04-23T05:55:25.148Z,11.60
2018-04-23T05:57:52.746Z,11.07
2018-04-23T06:00:20.365Z,12.20
2018-04-23T06:02:47.893Z,11.50
2018-04-23T06:05:16.197Z,12.43
2018-04-23T06:07:43.720Z,12.07
2018-04-23T06:10:12.013Z,13.17
2018-04-23T06:12:39.591Z,13.17
2018-04-23T06:15:07.127Z,11.80
2018-04-23T06:17:35.419Z,13.60
2018-04-23T06:20:02.961Z,14.37
2018-04-23T06:22:31.234Z,13.07
2018-04-23T06:24:59.645Z,13.53
2018-04-23T06:27:27.200Z,13.57
2018-04-23T06:29:54.722Z,14.27
2018-04-23T06:32:22.272Z,14.13
2018-04-23T06:34:49.788Z,13.40
2018-04-23T06:37:17.316Z,13.90
2018-04-23T06:39:45.601Z,15.40
2018-04-23T06:42:13.913Z,15.07
2018-04-23T06:44:41.529Z,15.27
2018-04-23T06:47:09.944Z,15.67
2018-04-23T06:49:37.472Z,15.43
2018-04-23T06:52:05.751Z,16.13
2018-04-23T06:54:34.049Z,15.10
2018-04-23T06:57:01.571Z,15.13
2018-04-23T06:59:29.179Z,15.20
2018-04-23T07:01:56.707Z,14.47
2018-04-23T07:04:25.005Z,13.93
2018-04-23T07:06:52.531Z,13.87
2018-04-23T07:09:20.825Z,14.00
2018-04-23T07:11:49.161Z,14.10
2018-04-23T07:14:16.673Z,13.90
2018-04-23T07:16:44.204Z,13.67
2018-04-23T07:19:11.724Z,13.57
2018-04-23T07:21:39.254Z,13.17
2018-04-23T07:24:07.580Z,13.27
2018-04-23T07:26:35.098Z,14.40
2018-04-23T07:29:02.663Z,14.33
2018-04-23T07:31:30.224Z,13.77
2018-04-23T07:33:57.779Z,14.20
2018-04-23T07:36:25.345Z,13.83
2018-04-23T07:38:52.867Z,14.47
2018-04-23T07:41:20.386Z,13.17
2018-04-23T07:43:47.899Z,13.97
2018-04-23T07:46:15.493Z,14.20
2018-04-23T07:48:43.067Z,14.10
2018-04-23T07:51:10.579Z,13.87
2018-04-23T07:53:38.885Z,13.13
2018-04-23T07:56:06.407Z,13.00
2018-04-23T07:58:33.922Z,12.63
2018-04-23T08:01:01.449Z,13.03
2018-04-23T08:03:28.968Z,12.60
2018-04-23T08:05:56.496Z,12.57
2018-04-23T08:08:24.046Z,11.57
2018-04-23T08:10:51.576Z,10.10
2018-04-23T08:13:19.855Z,10.17
2018-04-23T08:15:48.162Z,10.00
2018-04-23T08:18:15.676Z,9.70
2018-04-23T08:20:43.217Z,9.73
2018-04-23T08:23:10.841Z,9.00
2018-04-23T08:25:38.389Z,11.30
2018-04-23T08:28:05.932Z,10.83
2018-04-23T08:30:34.245Z,10.73
2018-04-23T08:33:01.765Z,10.40
2018-04-23T08:35:30.075Z,9.13
2018-04-23T08:37:57.599Z,9.10
2018-04-23T08:40:25.899Z,9.27
2018-04-23T08:42:53.421Z,9.20
2018-04-23T08:45:22.451Z,8.70
2018-04-23T08:47:50.752Z,9.20
2018-04-23T08:50:18.294Z,8.50
2018-04-23T08:52:45.859Z,9.00
2018-04-23T08:55:13.371Z,8.67
2018-04-23T08:57:40.933Z,8.80
2018-04-23T09:00:08.555Z,9.07
2018-04-23T09:02:36.069Z,8.03
2018-04-23T09:05:04.374Z,7.90
2018-04-23T09:07:31.903Z,8.77
2018-04-23T09:09:59.423Z,9.23
2018-04-23T09:12:26.935Z,9.90
2018-04-23T09:14:55.335Z,9.40
2018-04-23T09:17:22.862Z,9.90
2018-04-23T09:19:50.383Z,10.40
2018-04-23T09:22:17.923Z,9.87
2018-04-23T09:24:45.443Z,8.47
2018-04-23T09:27:13.743Z,9.20
2018-04-23T09:29:42.026Z,8.43
2018-04-23T09:32:09.631Z,10.30
2018-04-23T09:34:37.159Z,10.03
2018-04-23T09:37:04.691Z,8.93
2018-04-23T09:39:33.043Z,7.40
2018-04-23T09:42:00.666Z,8.30
2018-04-23T09:44:28.502Z,6.37
2018-04-23T09:46:56.035Z,7.53
2018-04-23T09:49:23.640Z,8.27
2018-04-23T09:51:51.211Z,9.20
2018-04-23T09:54:18.715Z,7.73
2018-04-23T09:56:46.236Z,8.60
2018-04-23T09:59:13.790Z,9.80
2018-04-23T10:01:47.028Z,9.30
2018-04-23T10:04:20.167Z,7.60
2018-04-23T10:06:47.687Z,8.30
2018-04-23T10:09:15.400Z,8.60
2018-04-23T10:11:42.954Z,8.27
2018-04-23T10:14:10.514Z,8.13
2018-04-23T10:16:38.030Z,8.57
2018-04-23T10:19:05.547Z,8.73
2018-04-23T10:21:33.312Z,8.93
2018-04-23T10:24:00.832Z,8.27
2018-04-23T10:26:29.146Z,9.00
2018-04-23T10:28:56.705Z,9.13
2018-04-23T10:31:24.258Z,8.63
2018-04-23T10:33:52.563Z,8.13
2018-04-23T10:36:20.322Z,8.30
2018-04-23T10:38:47.860Z,8.97
2018-04-23T10:41:15.392Z,9.83
2018-04-23T10:43:43.672Z,9.17
2018-04-23T10:46:12.802Z,8.97
2018-04-23T10:48:40.342Z,8.53
2018-04-23T10:53:42.702Z,8.47
2018-04-23T10:56:10.308Z,8.73
2018-04-23T10:58:37.858Z,8.33
2018-04-23T11:01:05.429Z,8.33
2018-04-23T11:03:32.941Z,7.83
2018-04-23T11:06:00.467Z,8.53
2018-04-23T11:08:27.996Z,8.07
2018-04-23T11:10:55.515Z,8.47
2018-04-23T11:13:23.173Z,8.17
2018-04-23T11:15:50.736Z,8.10
2018-04-23T11:18:18.859Z,7.13
2018-04-23T11:20:46.375Z,7.67
2018-04-23T11:23:15.513Z,7.97
2018-04-23T11:25:43.087Z,7.87
2018-04-23T11:28:10.683Z,7.53
2018-04-23T11:30:38.219Z,7.33
2018-04-23T11:33:05.731Z,6.83
2018-04-23T11:35:34.042Z,7.87
2018-04-23T11:38:01.694Z,7.60
2018-04-23T11:40:29.209Z,7.70
2018-04-23T11:42:57.529Z,7.60
2018-04-23T11:45:25.077Z,8.20
2018-04-23T11:47:53.389Z,7.40
2018-04-23T11:50:20.947Z,7.50
2018-04-23T11:52:48.477Z,6.93
2018-04-23T11:55:16.765Z,7.80
2018-04-23T11:57:44.326Z,7.03
2018-04-23T12:00:11.847Z,7.23
2018-04-23T12:02:39.362Z,7.50
2018-04-23T12:05:06.869Z,6.43
2018-04-23T12:07:34.391Z,6.43
2018-04-23T12:10:01.938Z,6.47
2018-04-23T12:12:29.448Z,6.67
2018-04-23T12:14:56.976Z,6.43
2018-04-23T12:17:24.490Z,6.87
2018-04-23T12:19:52.763Z,6.90
2018-04-23T12:22:21.103Z,6.87
2018-04-23T12:24:48.654Z,6.23
2018-04-23T12:27:16.168Z,5.07
2018-04-23T12:29:44.576Z,5.07
2018-04-23T12:32:12.124Z,4.93
2018-04-23T12:34:39.649Z,4.97
2018-04-23T12:37:07.176Z,5.57
2018-04-23T12:39:34.702Z,5.97
2018-04-23T12:42:02.298Z,5.07
2018-04-23T12:44:29.810Z,5.87
2018-04-23T12:46:58.089Z,5.67
2018-04-23T12:49:26.467Z,5.00
2018-04-23T12:51:54.744Z,5.03
2018-04-23T12:54:23.016Z,5.40
2018-04-23T12:56:51.636Z,5.00
2018-04-23T12:59:19.163Z,5.03
2018-04-23T13:01:47.730Z,4.93
2018-04-23T13:04:15.238Z,5.27
2018-04-23T13:06:42.798Z,5.23
2018-04-23T13:09:10.316Z,4.90
2018-04-23T13:11:37.928Z,5.30
2018-04-23T13:14:05.460Z,5.40
2018-04-23T13:16:33.762Z,5.33
2018-04-23T13:19:01.266Z,5.03
2018-04-23T13:21:28.834Z,5.20
2018-04-23T13:23:57.164Z,5.37
2018-04-23T13:26:24.692Z,4.77
2018-04-23T13:28:53.099Z,4.57
2018-04-23T13:31:20.685Z,5.03
2018-04-23T13:33:48.192Z,4.73
2018-04-23T13:36:16.488Z,4.90
2018-04-23T13:38:44.002Z,4.53
2018-04-23T13:41:11.622Z,4.60
2018-04-23T13:43:39.161Z,4.80
2018-04-23T13:46:06.668Z,4.73
2018-04-23T13:48:34.192Z,5.50
2018-04-23T13:51:01.720Z,5.03
2018-04-23T13:53:30.007Z,5.67
2018-04-23T13:55:58.303Z,6.97
2018-04-23T13:58:25.827Z,6.30
2018-04-23T14:00:53.349Z,5.50
2018-04-23T14:03:20.883Z,5.10
2018-04-23T14:05:48.413Z,5.40
2018-04-23T14:08:16.708Z,4.93
2018-04-23T14:10:44.241Z,4.87
2018-04-23T14:13:11.843Z,5.40
2018-04-23T14:15:39.362Z,5.33
2018-04-23T14:18:06.876Z,5.00
2018-04-23T14:20:34.403Z,4.97
2018-04-23T14:23:02.688Z,4.97
2018-04-23T14:25:30.255Z,4.93
2018-04-23T14:27:57.837Z,5.20
2018-04-23T14:30:25.397Z,5.10
2018-04-23T14:32:52.942Z,4.77
2018-04-23T14:35:20.489Z,4.77
2018-04-23T14:37:48.061Z,4.73
2018-04-23T14:40:15.571Z,4.23
2018-04-23T14:42:43.097Z,4.33
2018-04-23T14:45:10.606Z,4.83
2018-04-23T14:47:38.121Z,4.53
2018-04-23T14:50:05.648Z,4.03
2018-04-23T14:52:33.172Z,4.20
2018-04-23T14:55:01.476Z,3.90
2018-04-23T14:57:29.749Z,3.97
2018-04-23T14:59:58.043Z,3.90
2018-04-23T15:02:25.626Z,4.17
2018-04-23T15:04:53.152Z,3.83
2018-04-23T15:07:21.438Z,4.33
2018-04-23T15:09:48.962Z,4.20
2018-04-23T15:12:16.499Z,4.40
2018-04-23T15:14:44.025Z,3.97
2018-04-23T15:17:11.555Z,4.20
2018-04-23T15:19:39.848Z,3.70
2018-04-23T15:22:08.136Z,3.80
2018-04-23T15:24:35.653Z,4.27
2018-04-23T15:27:03.184Z,3.40
2018-04-23T15:29:30.700Z,3.53
2018-04-23T15:31:58.981Z,3.80
2018-04-23T15:34:26.530Z,3.20
2018-04-23T15:36:54.812Z,3.57
2018-04-23T15:39:23.100Z,3.27
2018-04-23T15:41:50.658Z,3.47
2018-04-23T15:44:18.957Z,3.10
2018-04-23T15:46:46.518Z,3.10
2018-04-23T15:49:14.066Z,2.97
2018-04-23T15:51:41.611Z,3.00
2018-04-23T15:54:09.886Z,2.83
2018-04-23T15:56:38.193Z,2.60
2018-04-23T15:59:05.753Z,2.60
2018-04-23T16:01:33.291Z,2.83
2018-04-23T16:04:01.697Z,2.47
2018-04-23T16:06:29.228Z,2.53
2018-04-23T16:08:57.512Z,2.50
2018-04-23T16:11:25.055Z,2.40
2018-04-23T16:13:53.357Z,2.47
2018-04-23T16:16:20.870Z,2.37
2018-04-23T16:18:48.420Z,2.20
2018-04-23T16:21:15.936Z,1.83
2018-04-23T16:23:43.448Z,2.30
2018-04-23T16:26:11.058Z,2.73
2018-04-23T16:28:38.632Z,2.40
2018-04-23T16:31:06.154Z,2.40
2018-04-23T16:33:34.449Z,2.40
2018-04-23T16:36:02.025Z,2.43
2018-04-23T16:38:29.584Z,2.13
2018-04-23T16:40:57.111Z,2.23
2018-04-23T16:43:25.452Z,2.80
2018-04-23T16:45:52.936Z,2.23
2018-04-23T16:48:20.446Z,2.70
2018-04-23T16:50:47.954Z,2.27
2018-04-23T16:53:15.485Z,2.27
2018-04-23T16:55:43.012Z,2.10
2018-04-23T16:58:10.593Z,2.50
2018-04-23T17:00:38.114Z,2.70
2018-04-23T17:03:06.406Z,2.63
2018-04-23T17:05:33.916Z,2.67
2018-04-23T17:08:01.597Z,2.70
2018-04-23T17:10:29.079Z,2.90
2018-04-23T17:12:56.652Z,2.37
2018-04-23T17:15:24.167Z,2.40
2018-04-23T17:17:51.683Z,2.30
2018-04-23T17:20:19.186Z,2.00
2018-04-23T17:22:46.726Z,2.27
2018-04-23T17:25:14.258Z,2.73
2018-04-23T17:27:41.782Z,2.27
2018-04-23T17:30:10.110Z,2.47
2018-04-23T17:32:37.660Z,2.43
2018-04-23T17:35:05.200Z,2.30
2018-04-23T17:37:33.498Z,2.33
2018-04-23T17:40:01.020Z,2.33
2018-04-23T17:42:29.307Z,2.20
2018-04-23T17:44:57.575Z,2.20
2018-04-23T17:47:25.877Z,2.10
2018-04-23T17:49:53.428Z,2.20
2018-04-23T17:52:21.706Z,2.10
2018-04-23T17:54:49.249Z,2.37
2018-04-23T17:57:17.527Z,2.40
2018-04-23T17:59:45.836Z,2.37
2018-04-23T18:02:13.353Z,2.20
2018-04-23T18:04:41.631Z,2.27
2018-04-23T18:07:09.245Z,2.60
2018-04-23T18:09:36.777Z,2.20
2018-04-23T18:12:05.082Z,2.23
2018-04-23T18:14:32.588Z,2.10
2018-04-23T18:17:00.881Z,2.30
2018-04-23T18:19:29.168Z,2.50
2018-04-23T18:21:57.442Z,2.10
2018-04-23T18:24:25.728Z,2.47
2018-04-23T18:26:53.249Z,2.20
2018-04-23T18:29:20.755Z,2.23
2018-04-23T18:31:48.288Z,2.20
2018-04-23T18:34:16.585Z,2.10
2018-04-23T18:36:44.923Z,2.00
2018-04-23T18:39:12.443Z,2.50
2018-04-23T18:41:39.983Z,2.07
2018-04-23T18:44:08.327Z,2.20
2018-04-23T18:46:35.949Z,2.30
2018-04-23T18:49:03.476Z,2.20
2018-04-23T18:51:31.754Z,2.20
2018-04-23T18:54:00.050Z,2.10
2018-04-23T18:56:27.564Z,2.10
2018-04-23T18:58:55.083Z,2.07
2018-04-23T19:01:22.610Z,2.03
2018-04-23T19:03:50.908Z,2.17
2018-04-23T19:06:18.433Z,2.40
2018-04-23T19:08:46.060Z,2.60
2018-04-23T19:11:13.687Z,2.70
2018-04-23T19:13:41.245Z,2.27
2018-04-23T19:16:08.777Z,2.50
2018-04-23T19:18:36.378Z,2.43
2018-04-23T19:21:03.917Z,2.47
2018-04-23T19:23:32.219Z,2.27
2018-04-23T19:25:59.748Z,2.50
2018-04-23T19:28:28.175Z,2.10
2018-04-23T19:30:55.823Z,2.27
2018-04-23T19:33:23.337Z,2.30
2018-04-23T19:35:51.717Z,2.47
2018-04-23T19:38:19.179Z,2.50
2018-04-23T19:40:47.461Z,2.83
2018-04-23T19:43:15.749Z,2.30
2018-04-23T19:45:44.063Z,2.77
2018-04-23T19:48:11.585Z,2.57
2018-04-23T19:50:39.859Z,2.17
2018-04-23T19:53:08.270Z,2.60
2018-04-23T19:55:35.774Z,2.70
2018-04-23T19:58:03.299Z,1.97
2018-04-23T20:00:30.890Z,2.17
2018-04-23T20:02:58.373Z,2.43
2018-04-23T20:05:26.658Z,2.20
2018-04-23T20:07:54.952Z,2.10
2018-04-23T20:10:22.508Z,2.17
2018-04-23T20:12:50.027Z,2.00
2018-04-23T20:15:18.348Z,2.40
2018-04-23T20:17:45.926Z,3.00
2018-04-23T20:20:13.446Z,2.60
2018-04-23T20:22:41.848Z,2.03
2018-04-23T20:25:09.358Z,2.10
2018-04-23T20:27:36.871Z,2.00
2018-04-23T20:30:04.406Z,2.20
2018-04-23T20:32:32.716Z,2.57
2018-04-23T20:35:00.229Z,2.30
2018-04-23T20:37:27.755Z,2.50
2018-04-23T20:39:55.261Z,2.23
2018-04-23T20:42:23.535Z,2.10
2018-04-23T20:44:51.832Z,2.40
2018-04-23T20:47:20.110Z,2.40
2018-04-23T20:49:47.645Z,2.50
2018-04-23T20:52:15.246Z,2.13
2018-04-23T20:54:42.801Z,2.43
2018-04-23T20:57:10.320Z,2.20
2018-04-23T20:59:37.930Z,2.40
2018-04-23T21:02:05.446Z,2.40
2018-04-23T21:04:33.786Z,1.93
2018-04-23T21:07:01.296Z,2.13
2018-04-23T21:09:29.599Z,2.43
2018-04-23T21:11:57.157Z,2.67
2018-04-23T21:14:24.720Z,2.60
2018-04-23T21:16:52.238Z,2.90
2018-04-23T21:19:19.746Z,2.87
2018-04-23T21:21:47.412Z,2.20
2018-04-23T21:24:14.934Z,2.20
2018-04-23T21:26:43.216Z,2.37
2018-04-23T21:29:12.476Z,2.00
2018-04-23T21:31:40.006Z,2.10
2018-04-23T21:34:07.538Z,2.20
2018-04-23T21:36:35.825Z,2.00
2018-04-23T21:39:03.350Z,2.03
2018-04-23T21:41:30.960Z,2.23
2018-04-23T21:43:58.480Z,2.30
2018-04-23T21:46:25.997Z,2.50
2018-04-23T21:48:53.542Z,1.83
2018-04-23T21:51:21.065Z,2.03
2018-04-23T21:53:49.351Z,2.17
2018-04-23T21:56:17.637Z,2.10
2018-04-23T21:58:45.924Z,1.50
2018-04-23T22:01:13.496Z,1.70
2018-04-23T22:03:41.021Z,2.13
2018-04-23T22:06:09.312Z,1.93
2018-04-23T22:08:37.607Z,1.87
2018-04-23T22:11:05.115Z,1.97
2018-04-23T22:13:32.650Z,1.80
2018-04-23T22:16:00.165Z,2.00
2018-04-23T22:18:28.446Z,1.80
2018-04-23T22:20:56.741Z,1.80
2018-04-23T22:23:24.245Z,1.70
2018-04-23T22:25:51.864Z,1.67
2018-04-23T22:28:19.526Z,1.67
2018-04-23T22:30:47.076Z,1.87
2018-04-23T22:33:14.588Z,1.80
2018-04-23T22:35:42.194Z,2.00
2018-04-23T22:38:09.702Z,1.83
2018-04-23T22:40:37.218Z,1.80
2018-04-23T22:43:04.778Z,2.30
2018-04-23T22:45:32.296Z,2.00
2018-04-23T22:48:01.347Z,2.00
2018-04-23T22:50:28.874Z,2.20
2018-04-23T22:52:57.168Z,2.03
2018-04-23T22:55:24.741Z,2.27
2018-04-23T22:57:52.304Z,2.10
2018-04-23T23:00:19.858Z,2.10
2018-04-23T23:02:47.385Z,2.07
2018-04-23T23:05:15.699Z,2.10
2018-04-23T23:07:43.217Z,2.30
2018-04-23T23:10:10.743Z,2.83
2018-04-23T23:12:38.263Z,3.23
2018-04-23T23:15:05.842Z,2.27
2018-04-23T23:17:33.403Z,2.10
2018-04-23T23:20:00.929Z,2.47
2018-04-23T23:22:29.210Z,2.30
2018-04-23T23:24:57.500Z,2.73
2018-04-23T23:27:25.059Z,2.60
2018-04-23T23:29:52.545Z,2.00
2018-04-23T23:32:20.068Z,2.80
2018-04-23T23:34:48.346Z,2.43
2018-04-23T23:37:16.649Z,2.67
2018-04-23T23:39:44.160Z,2.67
2018-04-23T23:42:11.819Z,2.63
2018-04-23T23:44:39.433Z,3.00
2018-04-23T23:47:06.943Z,3.30
2018-04-23T23:49:34.454Z,3.10
2018-04-23T23:52:02.000Z,2.93
2018-04-23T23:54:29.516Z,2.80
2018-04-23T23:56:57.136Z,2.87
2018-04-23T23:59:24.658Z,2.90
